createdAt,value
2018-01-27T00:01:28.523Z,12.05
2018-01-27T00:03:56.029Z,13.18
2018-01-27T00:06:23.601Z,10.65
2018-01-27T00:08:52.653Z,13.88
2018-01-27T00:11:22.117Z,9.77
2018-01-27T00:13:52.430Z,12.75
2018-01-27T00:16:19.951Z,11.55
2018-01-27T00:18:47.436Z,15.60
2018-01-27T00:21:14.918Z,14.52
2018-01-27T00:23:43.366Z,14.73
2018-01-27T00:26:10.854Z,14.25
2018-01-27T00:28:39.872Z,12.85
2018-01-27T00:31:07.366Z,10.75
2018-01-27T00:33:35.786Z,11.43
2018-01-27T00:36:03.272Z,13.62
2018-01-27T00:38:30.761Z,11.43
2018-01-27T00:40:58.271Z,12.20
2018-01-27T00:43:25.792Z,10.32
2018-01-27T00:45:53.289Z,9.95
2018-01-27T00:48:20.812Z,11.25
2018-01-27T00:50:48.302Z,11.93
2018-01-27T00:53:15.808Z,11.82
2018-01-27T00:55:43.303Z,9.05
2018-01-27T00:58:10.842Z,10.95
2018-01-27T01:00:38.341Z,11.23
2018-01-27T01:03:05.830Z,11.95
2018-01-27T01:05:33.311Z,9.82
2018-01-27T01:08:00.812Z,9.73
2018-01-27T01:10:28.319Z,9.35
2018-01-27T01:12:55.853Z,10.82
2018-01-27T01:15:23.367Z,10.25
2018-01-27T01:17:50.909Z,8.30
2018-01-27T01:20:18.470Z,10.32
2018-01-27T01:22:45.958Z,12.45
2018-01-27T01:25:13.469Z,10.07
2018-01-27T01:27:41.045Z,9.65
2018-01-27T01:30:10.477Z,18.48
2018-01-27T01:32:37.974Z,7.65
2018-01-27T01:35:05.571Z,9.43
2018-01-27T01:37:33.057Z,7.87
2018-01-27T01:40:00.573Z,10.50
2018-01-27T01:42:33.581Z,11.82
2018-01-27T01:45:01.087Z,9.40
2018-01-27T01:47:28.569Z,12.25
2018-01-27T01:49:56.067Z,11.02
2018-01-27T01:52:23.568Z,10.85
2018-01-27T01:54:51.061Z,12.82
2018-01-27T01:57:18.558Z,9.82
2018-01-27T01:59:46.057Z,8.73
2018-01-27T02:02:13.637Z,9.02
2018-01-27T02:04:41.122Z,8.57
2018-01-27T02:07:08.607Z,7.35
2018-01-27T02:09:36.106Z,6.40
2018-01-27T02:12:03.595Z,8.93
2018-01-27T02:14:31.092Z,11.93
2018-01-27T02:16:58.689Z,8.73
2018-01-27T02:19:27.530Z,8.68
2018-01-27T02:21:55.010Z,9.77
2018-01-27T02:24:22.595Z,14.65
2018-01-27T02:26:49.847Z,11.02
2018-01-27T02:29:17.338Z,8.38
2018-01-27T02:31:44.825Z,12.60
2018-01-27T02:34:12.605Z,10.20
2018-01-27T02:36:40.205Z,10.65
2018-01-27T02:39:07.682Z,9.43
2018-01-27T02:41:35.542Z,10.98
2018-01-27T02:44:03.033Z,14.73
2018-01-27T02:46:30.652Z,9.38
2018-01-27T02:48:59.081Z,11.82
2018-01-27T02:51:26.569Z,10.55
2018-01-27T02:53:54.065Z,12.50
2018-01-27T02:56:21.549Z,9.15
2018-01-27T02:58:49.436Z,9.20
2018-01-27T03:01:16.925Z,14.77
2018-01-27T03:03:44.405Z,10.27
2018-01-27T03:06:12.057Z,8.88
2018-01-27T03:08:39.547Z,9.48
2018-01-27T03:11:07.039Z,10.43
2018-01-27T03:13:34.527Z,7.65
2018-01-27T03:16:02.039Z,12.02
2018-01-27T03:18:29.621Z,9.68
2018-01-27T03:20:57.113Z,11.25
2018-01-27T03:23:24.596Z,9.75
2018-01-27T03:25:52.202Z,8.38
2018-01-27T03:28:19.685Z,9.23
2018-01-27T03:30:47.233Z,9.05
2018-01-27T03:33:14.721Z,10.25
2018-01-27T03:35:43.221Z,8.25
2018-01-27T03:38:10.710Z,9.77
2018-01-27T03:40:38.221Z,9.70
2018-01-27T03:43:05.757Z,8.68
2018-01-27T03:45:34.266Z,11.95
2018-01-27T03:48:01.745Z,14.48
2018-01-27T03:50:29.261Z,10.63
2018-01-27T03:52:56.754Z,10.60
2018-01-27T03:55:24.280Z,12.77
2018-01-27T03:57:51.769Z,13.15
2018-01-27T04:00:21.241Z,11.10
2018-01-27T04:02:48.749Z,11.60
2018-01-27T04:05:16.248Z,9.23
2018-01-27T04:07:43.734Z,10.77
2018-01-27T04:10:10.985Z,10.75
2018-01-27T04:12:38.490Z,10.88
2018-01-27T04:15:05.973Z,9.50
2018-01-27T04:17:33.463Z,11.70
2018-01-27T04:20:00.942Z,15.30
2018-01-27T04:22:28.524Z,10.80
2018-01-27T04:24:56.006Z,9.35
2018-01-27T04:27:23.530Z,11.07
2018-01-27T04:29:50.837Z,10.27
2018-01-27T04:32:18.345Z,14.68
2018-01-27T04:34:45.841Z,11.70
2018-01-27T04:37:13.474Z,15.38
2018-01-27T04:39:40.959Z,14.23
2018-01-27T04:42:08.457Z,14.05
2018-01-27T04:44:36.358Z,12.37
2018-01-27T04:47:03.857Z,13.62
2018-01-27T04:49:31.396Z,16.83
2018-01-27T04:51:59.060Z,13.02
2018-01-27T04:54:26.551Z,11.52
2018-01-27T04:56:54.156Z,11.80
2018-01-27T04:59:21.661Z,10.48
2018-01-27T05:01:49.754Z,15.50
2018-01-27T05:04:17.241Z,10.45
2018-01-27T05:06:45.767Z,13.60
2018-01-27T05:09:13.376Z,12.77
2018-01-27T05:11:40.890Z,13.18
2018-01-27T05:14:08.384Z,11.10
2018-01-27T05:16:35.890Z,11.88
2018-01-27T05:19:03.417Z,11.50
2018-01-27T05:21:30.921Z,13.43
2018-01-27T05:23:58.415Z,11.10
2018-01-27T05:26:25.917Z,13.52
2018-01-27T05:28:53.402Z,15.00
2018-01-27T05:31:20.915Z,15.15
2018-01-27T05:33:48.401Z,14.73
2018-01-27T05:36:16.652Z,18.95
2018-01-27T05:38:44.142Z,15.00
2018-01-27T05:41:11.863Z,13.77
2018-01-27T05:43:39.349Z,20.15
2018-01-27T05:46:06.836Z,17.37
2018-01-27T05:48:34.326Z,16.48
2018-01-27T05:51:01.814Z,18.92
2018-01-27T05:53:29.305Z,16.48
2018-01-27T05:55:56.607Z,12.93
2018-01-27T05:58:23.907Z,14.50
2018-01-27T06:00:51.390Z,12.60
2018-01-27T06:03:20.852Z,12.18
2018-01-27T06:05:48.342Z,16.27
2018-01-27T06:08:16.380Z,13.82
2018-01-27T06:10:43.863Z,14.07
2018-01-27T06:13:11.356Z,18.37
2018-01-27T06:15:38.661Z,17.98
2018-01-27T06:18:05.992Z,14.52
2018-01-27T06:20:33.490Z,15.88
2018-01-27T06:23:01.006Z,18.27
2018-01-27T06:25:28.502Z,14.18
2018-01-27T06:27:56.019Z,16.92
2018-01-27T06:30:23.502Z,14.10
2018-01-27T06:32:51.004Z,13.10
2018-01-27T06:35:18.508Z,16.35
2018-01-27T06:37:47.009Z,15.20
2018-01-27T06:40:14.503Z,16.30
2018-01-27T06:42:42.018Z,17.87
2018-01-27T06:45:09.505Z,14.00
2018-01-27T06:47:37.003Z,13.98
2018-01-27T06:50:04.272Z,13.48
2018-01-27T06:52:31.781Z,11.20
2018-01-27T06:54:59.297Z,12.40
2018-01-27T06:57:26.789Z,13.80
2018-01-27T06:59:54.293Z,12.85
2018-01-27T07:02:21.889Z,15.15
2018-01-27T07:04:49.370Z,14.30
2018-01-27T07:07:16.882Z,11.52
2018-01-27T07:09:45.317Z,15.43
2018-01-27T07:12:12.809Z,14.23
2018-01-27T07:14:40.298Z,11.60
2018-01-27T07:17:07.783Z,13.93
2018-01-27T07:19:35.293Z,15.60
2018-01-27T07:22:02.877Z,22.15
2018-01-27T07:24:30.385Z,12.77
2018-01-27T07:26:57.866Z,11.20
2018-01-27T07:29:25.125Z,15.50
2018-01-27T07:31:52.756Z,11.98
2018-01-27T07:34:20.469Z,15.55
2018-01-27T07:36:48.029Z,14.25
2018-01-27T07:39:15.513Z,12.60
2018-01-27T07:41:43.018Z,12.80
2018-01-27T07:44:10.492Z,13.80
2018-01-27T07:46:38.017Z,19.10
2018-01-27T07:49:05.501Z,13.05
2018-01-27T07:51:32.990Z,11.77
2018-01-27T07:54:00.554Z,15.50
2018-01-27T07:56:28.035Z,13.77
2018-01-27T07:58:55.517Z,14.23
2018-01-27T08:01:22.990Z,13.93
2018-01-27T08:03:51.430Z,11.77
2018-01-27T08:06:18.937Z,9.00
2018-01-27T08:08:47.374Z,9.98
2018-01-27T08:11:14.860Z,12.15
2018-01-27T08:13:42.374Z,9.63
2018-01-27T08:16:09.866Z,15.23
2018-01-27T08:18:37.367Z,12.13
2018-01-27T08:21:05.322Z,14.15
2018-01-27T08:23:33.802Z,15.45
2018-01-27T08:26:02.257Z,12.37
2018-01-27T08:28:29.746Z,12.57
2018-01-27T08:30:57.226Z,13.48
2018-01-27T08:33:24.714Z,14.20
2018-01-27T08:35:52.189Z,13.02
2018-01-27T08:38:19.690Z,13.25
2018-01-27T08:40:47.894Z,15.25
2018-01-27T08:43:15.828Z,11.77
2018-01-27T08:45:43.322Z,11.82
2018-01-27T08:48:10.823Z,9.40
2018-01-27T08:50:38.326Z,10.75
2018-01-27T08:53:06.772Z,9.45
2018-01-27T08:55:34.265Z,13.35
2018-01-27T08:58:02.669Z,9.88
2018-01-27T09:00:30.155Z,9.25
2018-01-27T09:02:57.642Z,9.88
2018-01-27T09:05:25.254Z,8.35
2018-01-27T09:07:52.782Z,21.23
2018-01-27T09:10:20.285Z,25.60
2018-01-27T09:12:47.805Z,12.57
2018-01-27T09:15:15.294Z,11.12
2018-01-27T09:17:42.891Z,8.10
2018-01-27T09:20:11.178Z,9.43
2018-01-27T09:22:38.715Z,10.40
2018-01-27T09:25:06.225Z,10.05
2018-01-27T09:27:34.226Z,10.25
2018-01-27T09:30:01.718Z,10.15
2018-01-27T09:32:29.250Z,11.12
2018-01-27T09:34:56.765Z,13.02
2018-01-27T09:37:24.320Z,12.00
2018-01-27T09:39:52.058Z,10.85
2018-01-27T09:42:19.605Z,11.60
2018-01-27T09:44:47.096Z,10.63
2018-01-27T09:47:14.646Z,12.80
2018-01-27T09:49:42.126Z,25.25
2018-01-27T09:52:09.606Z,15.63
2018-01-27T09:54:37.100Z,17.67
2018-01-27T09:57:05.554Z,14.40
2018-01-27T09:59:33.068Z,10.43
2018-01-27T10:02:00.565Z,14.95
2018-01-27T10:04:28.065Z,13.77
2018-01-27T10:06:55.546Z,17.98
2018-01-27T10:09:23.050Z,14.75
2018-01-27T10:11:50.525Z,14.23
2018-01-27T10:14:18.259Z,12.60
2018-01-27T10:16:45.782Z,13.55
2018-01-27T10:19:13.289Z,18.62
2018-01-27T10:21:40.795Z,14.50
2018-01-27T10:24:08.694Z,14.82
2018-01-27T10:26:36.224Z,24.67
2018-01-27T10:29:06.374Z,32.33
2018-01-27T10:31:33.866Z,35.95
2018-01-27T10:34:01.130Z,56.60
2018-01-27T10:36:28.622Z,41.85
2018-01-27T10:38:56.150Z,40.25
2018-01-27T10:41:23.641Z,37.97
2018-01-27T10:43:51.158Z,52.05
2018-01-27T10:46:18.650Z,53.03
2018-01-27T10:48:46.962Z,45.92
2018-01-27T10:51:14.450Z,57.88
2018-01-27T10:53:41.974Z,54.28
2018-01-27T10:56:10.417Z,50.55
2018-01-27T10:58:37.951Z,46.25
2018-01-27T11:01:05.457Z,61.25
2018-01-27T11:03:32.974Z,38.25
2018-01-27T11:06:00.501Z,43.50
2018-01-27T11:08:28.030Z,41.00
2018-01-27T11:10:55.526Z,31.73
2018-01-27T11:13:23.048Z,32.38
2018-01-27T11:15:51.191Z,28.20
2018-01-27T11:18:20.013Z,30.98
2018-01-27T11:20:47.509Z,35.72
2018-01-27T11:23:15.021Z,33.25
2018-01-27T11:25:42.513Z,36.40
2018-01-27T11:28:10.014Z,27.67
2018-01-27T11:30:37.513Z,28.55
2018-01-27T11:33:05.008Z,22.45
2018-01-27T11:35:32.510Z,22.98
2018-01-27T11:38:00.099Z,19.48
2018-01-27T11:40:27.591Z,19.55
2018-01-27T11:42:55.646Z,21.15
2018-01-27T11:45:23.563Z,22.42
2018-01-27T11:47:51.522Z,19.25
2018-01-27T11:50:19.121Z,22.87
2018-01-27T11:52:46.612Z,19.73
2018-01-27T11:55:14.126Z,18.58
2018-01-27T11:57:41.708Z,19.80
2018-01-27T12:00:09.197Z,21.85
2018-01-27T12:02:37.000Z,17.98
2018-01-27T12:05:04.659Z,15.68
2018-01-27T12:07:32.170Z,18.67
2018-01-27T12:09:59.677Z,20.20
2018-01-27T12:12:27.189Z,19.98
2018-01-27T12:14:55.702Z,20.52
2018-01-27T12:17:23.010Z,19.35
2018-01-27T12:19:50.573Z,21.52
2018-01-27T12:22:18.272Z,21.55
2018-01-27T12:24:45.691Z,22.13
2018-01-27T12:27:13.182Z,20.35
2018-01-27T12:29:40.721Z,20.55
2018-01-27T12:32:08.217Z,22.95
2018-01-27T12:34:35.733Z,22.75
2018-01-27T12:37:03.240Z,19.92
2018-01-27T12:39:30.754Z,21.42
2018-01-27T12:41:58.249Z,23.77
2018-01-27T12:44:25.774Z,24.92
2018-01-27T12:46:53.287Z,22.62
2018-01-27T12:49:20.819Z,23.95
2018-01-27T12:51:48.305Z,25.35
2018-01-27T12:54:15.810Z,21.95
2018-01-27T12:56:43.319Z,27.08
2018-01-27T12:59:10.836Z,28.25
2018-01-27T13:01:38.338Z,31.08
2018-01-27T13:04:05.870Z,28.62
2018-01-27T13:06:34.394Z,26.87
2018-01-27T13:09:01.890Z,28.75
2018-01-27T13:11:29.424Z,26.92
2018-01-27T13:13:57.866Z,30.15
2018-01-27T13:16:25.357Z,28.60
2018-01-27T13:18:52.857Z,23.35
2018-01-27T13:21:20.361Z,23.62
2018-01-27T13:23:47.323Z,21.70
2018-01-27T13:26:15.619Z,22.87
2018-01-27T13:28:42.840Z,22.33
2018-01-27T13:31:13.204Z,25.90
2018-01-27T13:33:42.065Z,22.37
2018-01-27T13:36:09.322Z,39.03
2018-01-27T13:38:37.719Z,25.17
2018-01-27T13:41:06.736Z,29.80
2018-01-27T13:43:34.059Z,29.33
2018-01-27T13:46:01.958Z,29.20
2018-01-27T13:48:30.259Z,36.70
2018-01-27T13:50:57.815Z,37.53
2018-01-27T13:53:25.318Z,35.42
2018-01-27T13:55:52.838Z,36.15
2018-01-27T13:58:20.518Z,44.38
2018-01-27T14:00:48.062Z,43.17
2018-01-27T14:03:15.361Z,44.00
2018-01-27T14:05:43.796Z,47.58
2018-01-27T14:08:11.298Z,47.55
2018-01-27T14:10:42.116Z,48.75
2018-01-27T14:13:10.061Z,46.85
2018-01-27T14:15:38.106Z,37.38
2018-01-27T14:18:05.595Z,66.80
2018-01-27T14:20:33.838Z,50.47
2018-01-27T14:23:01.333Z,54.45
2018-01-27T14:25:28.852Z,47.15
2018-01-27T14:27:56.342Z,42.85
2018-01-27T14:30:25.822Z,46.92
2018-01-27T14:32:53.317Z,45.70
2018-01-27T14:35:20.828Z,48.30
2018-01-27T14:37:48.336Z,45.30
2018-01-27T14:40:15.873Z,50.25
2018-01-27T14:42:43.541Z,49.38
2018-01-27T14:45:11.148Z,48.75
2018-01-27T14:47:38.660Z,46.42
2018-01-27T14:50:06.167Z,50.35
2018-01-27T14:52:33.757Z,50.97
2018-01-27T14:55:01.252Z,48.25
2018-01-27T14:57:28.742Z,47.13
2018-01-27T14:59:56.263Z,50.10
2018-01-27T15:02:24.280Z,42.70
2018-01-27T15:04:51.778Z,51.10
2018-01-27T15:07:19.265Z,50.00
2018-01-27T15:09:46.843Z,56.83
2018-01-27T15:12:14.336Z,52.28
2018-01-27T15:14:41.828Z,45.35
2018-01-27T15:17:09.797Z,47.40
2018-01-27T15:19:37.286Z,51.45
2018-01-27T15:22:04.554Z,48.28
2018-01-27T15:24:32.047Z,53.15
2018-01-27T15:26:59.686Z,48.15
2018-01-27T15:29:27.215Z,49.67
2018-01-27T15:31:54.714Z,57.78
2018-01-27T15:34:22.218Z,57.15
2018-01-27T15:36:50.177Z,46.20
2018-01-27T15:39:17.436Z,49.28
2018-01-27T15:41:44.954Z,51.35
2018-01-27T15:44:12.622Z,51.08
2018-01-27T15:46:40.114Z,49.72
2018-01-27T15:49:07.629Z,45.90
2018-01-27T15:51:35.121Z,49.67
2018-01-27T15:54:02.639Z,47.25
2018-01-27T15:56:30.154Z,44.35
2018-01-27T15:58:57.681Z,47.17
2018-01-27T16:01:25.285Z,43.78
2018-01-27T16:03:52.575Z,45.70
2018-01-27T16:06:20.077Z,47.47
2018-01-27T16:08:47.619Z,48.90
2018-01-27T16:11:15.122Z,42.00
2018-01-27T16:13:42.649Z,48.42
2018-01-27T16:16:10.233Z,49.05
2018-01-27T16:18:37.761Z,49.20
2018-01-27T16:21:05.257Z,44.22
2018-01-27T16:23:32.797Z,46.28
2018-01-27T16:26:00.284Z,37.42
2018-01-27T16:28:27.815Z,45.40
2018-01-27T16:30:55.114Z,38.30
2018-01-27T16:33:22.629Z,41.60
2018-01-27T16:35:50.125Z,51.50
2018-01-27T16:38:17.633Z,42.10
2018-01-27T16:40:45.123Z,41.58
2018-01-27T16:43:13.382Z,47.00
2018-01-27T16:45:40.874Z,42.55
2018-01-27T16:48:08.369Z,45.50
2018-01-27T16:50:35.877Z,40.30
2018-01-27T16:53:03.376Z,43.55
2018-01-27T16:55:30.870Z,38.22
2018-01-27T16:57:58.443Z,39.35
2018-01-27T17:00:25.792Z,33.67
2018-01-27T17:02:54.246Z,38.13
2018-01-27T17:05:21.834Z,34.97
2018-01-27T17:07:49.576Z,33.88
2018-01-27T17:10:17.077Z,33.63
2018-01-27T17:12:45.555Z,37.53
2018-01-27T17:15:14.466Z,31.98
2018-01-27T17:17:41.985Z,28.08
2018-01-27T17:20:09.480Z,38.28
2018-01-27T17:22:36.984Z,39.45
2018-01-27T17:25:04.479Z,33.67
2018-01-27T17:27:31.974Z,31.80
2018-01-27T17:29:59.461Z,36.35
2018-01-27T17:32:26.960Z,40.42
2018-01-27T17:34:54.479Z,34.13
2018-01-27T17:37:21.963Z,31.92
2018-01-27T17:39:49.478Z,33.03
2018-01-27T17:42:16.865Z,30.90
2018-01-27T17:44:44.374Z,29.35
2018-01-27T17:47:11.879Z,28.60
2018-01-27T17:49:39.423Z,28.17
2018-01-27T17:52:07.000Z,29.08
2018-01-27T17:54:34.522Z,27.23
2018-01-27T17:57:02.418Z,30.15
2018-01-27T17:59:29.938Z,33.45
2018-01-27T18:01:57.251Z,27.70
2018-01-27T18:04:24.753Z,32.90
2018-01-27T18:06:52.066Z,36.60
2018-01-27T18:09:19.581Z,24.73
2018-01-27T18:11:47.069Z,31.55
2018-01-27T18:14:14.618Z,37.25
2018-01-27T18:16:42.119Z,45.88
2018-01-27T18:19:10.641Z,42.35
2018-01-27T18:21:39.084Z,43.13
2018-01-27T18:24:06.601Z,40.72
2018-01-27T18:26:34.111Z,28.65
2018-01-27T18:29:03.551Z,30.48
2018-01-27T18:31:31.044Z,34.88
2018-01-27T18:33:58.561Z,37.05
2018-01-27T18:36:26.157Z,35.80
2018-01-27T18:38:53.666Z,32.85
2018-01-27T18:41:21.154Z,33.33
2018-01-27T18:43:48.661Z,35.45
2018-01-27T18:46:16.169Z,29.20
2018-01-27T18:48:43.440Z,31.08
2018-01-27T18:51:12.847Z,28.70
2018-01-27T18:53:41.891Z,33.30
2018-01-27T18:56:09.410Z,32.30
2018-01-27T18:58:36.901Z,28.90
2018-01-27T19:01:04.389Z,28.70
2018-01-27T19:03:32.823Z,32.80
2018-01-27T19:06:00.317Z,33.70
2018-01-27T19:08:27.602Z,33.67
2018-01-27T19:10:55.094Z,34.50
2018-01-27T19:13:22.596Z,31.23
2018-01-27T19:15:50.099Z,32.35
2018-01-27T19:18:17.626Z,32.70
2018-01-27T19:20:45.124Z,38.47
2018-01-27T19:23:14.598Z,34.67
2018-01-27T19:25:42.090Z,37.17
2018-01-27T19:28:09.581Z,34.80
2018-01-27T19:30:37.074Z,32.10
2018-01-27T19:33:04.574Z,43.42
2018-01-27T19:35:32.106Z,37.08
2018-01-27T19:37:59.602Z,39.90
2018-01-27T19:40:27.093Z,35.08
2018-01-27T19:42:54.934Z,41.67
2018-01-27T19:45:22.421Z,32.40
2018-01-27T19:47:49.915Z,38.88
2018-01-27T19:50:17.405Z,30.25
2018-01-27T19:52:44.910Z,37.05
2018-01-27T19:55:12.403Z,34.03
2018-01-27T19:57:39.902Z,42.70
2018-01-27T20:00:07.442Z,52.60
2018-01-27T20:02:35.040Z,88.93
2018-01-27T20:05:02.529Z,57.90
2018-01-27T20:07:30.034Z,55.70
2018-01-27T20:09:57.541Z,44.58
2018-01-27T20:12:24.868Z,33.72
2018-01-27T20:14:52.357Z,33.70
2018-01-27T20:17:19.846Z,34.03
2018-01-27T20:19:47.085Z,31.48
2018-01-27T20:22:14.581Z,37.67
2018-01-27T20:24:42.085Z,31.85
2018-01-27T20:27:09.594Z,32.53
2018-01-27T20:29:37.111Z,34.78
2018-01-27T20:32:04.606Z,38.97
2018-01-27T20:34:32.121Z,37.30
2018-01-27T20:36:59.613Z,36.33
2018-01-27T20:39:27.120Z,33.65
2018-01-27T20:41:54.429Z,39.55
2018-01-27T20:44:21.952Z,40.83
2018-01-27T20:46:49.458Z,41.72
2018-01-27T20:49:16.790Z,38.95
2018-01-27T20:51:44.090Z,42.67
2018-01-27T20:54:13.612Z,42.28
2018-01-27T20:56:41.139Z,48.97
2018-01-27T20:59:08.495Z,57.72
2018-01-27T21:01:36.010Z,41.75
2018-01-27T21:04:03.508Z,41.70
2018-01-27T21:06:30.820Z,47.28
2018-01-27T21:08:58.329Z,49.47
2018-01-27T21:11:25.822Z,43.95
2018-01-27T21:13:53.324Z,48.67
2018-01-27T21:16:20.823Z,42.85
2018-01-27T21:18:48.341Z,45.65
2018-01-27T21:21:15.851Z,53.47
2018-01-27T21:23:43.341Z,45.88
2018-01-27T21:26:10.646Z,51.92
2018-01-27T21:28:38.154Z,42.00
2018-01-27T21:31:05.649Z,44.90
2018-01-27T21:33:33.137Z,45.22
2018-01-27T21:36:00.638Z,41.28
2018-01-27T21:38:28.138Z,45.58
2018-01-27T21:40:55.637Z,42.17
2018-01-27T21:43:23.399Z,47.65
2018-01-27T21:45:50.893Z,45.40
2018-01-27T21:48:18.403Z,49.28
2018-01-27T21:50:45.900Z,44.20
2018-01-27T21:53:13.389Z,47.15
2018-01-27T21:55:41.825Z,51.28
2018-01-27T21:58:09.496Z,52.65
2018-01-27T22:00:37.997Z,55.22
2018-01-27T22:03:05.487Z,52.65
2018-01-27T22:05:33.062Z,54.00
2018-01-27T22:08:00.549Z,50.92
2018-01-27T22:10:28.030Z,55.30
2018-01-27T22:12:55.528Z,44.30
2018-01-27T22:15:23.046Z,47.45
2018-01-27T22:17:50.537Z,52.88
2018-01-27T22:20:18.041Z,49.88
2018-01-27T22:22:45.533Z,44.72
2018-01-27T22:25:13.041Z,50.70
2018-01-27T22:27:40.534Z,52.58
2018-01-27T22:30:08.144Z,45.30
2018-01-27T22:32:35.637Z,62.65
2018-01-27T22:35:03.162Z,52.33
2018-01-27T22:37:30.650Z,50.03
2018-01-27T22:39:59.170Z,51.95
2018-01-27T22:42:26.663Z,50.90
2018-01-27T22:44:54.169Z,55.97
2018-01-27T22:47:21.779Z,46.80
2018-01-27T22:49:49.305Z,48.50
2018-01-27T22:52:16.790Z,51.63
2018-01-27T22:54:44.302Z,46.75
2018-01-27T22:57:11.785Z,55.80
2018-01-27T22:59:39.286Z,53.28
2018-01-27T23:02:06.782Z,51.78
2018-01-27T23:04:34.403Z,46.20
2018-01-27T23:07:01.892Z,50.53
2018-01-27T23:09:29.397Z,45.45
2018-01-27T23:11:57.590Z,47.58
2018-01-27T23:14:25.093Z,49.83
2018-01-27T23:16:52.581Z,40.83
2018-01-27T23:19:20.157Z,43.58
2018-01-27T23:21:47.650Z,38.97
2018-01-27T23:24:15.165Z,45.15
2018-01-27T23:26:42.758Z,40.22
2018-01-27T23:29:10.244Z,39.33
2018-01-27T23:31:37.740Z,41.28
2018-01-27T23:34:05.229Z,38.90
2018-01-27T23:36:32.725Z,32.13
2018-01-27T23:39:00.882Z,35.00
2018-01-27T23:41:28.399Z,30.65
2018-01-27T23:43:55.894Z,35.10
2018-01-27T23:46:23.224Z,25.90
2018-01-27T23:48:50.741Z,29.42
2018-01-27T23:51:18.249Z,27.10
2018-01-27T23:53:45.733Z,31.23
2018-01-27T23:56:13.250Z,24.17
2018-01-27T23:58:40.739Z,29.55
